VLG51X EGCC-LEMH
Flight info
| Callsign | VLG51X |
|---|---|
| Flight time | N/A |
| Altitude | 35000 |
| Route | LISTO P18 TELBA L151 KIDLI UN859 SOPIL DCT BALAN DCT EVPOK DCT NARAK DCT GAI DCT LOMRA DCT ROCAN DCT GEANT DCT GIR DCT SALON N727 SARGO |
| Aircraft | A321/M-SDE3FGHIRWY/LB1 |
Departure
| Time | N/A |
|---|---|
| Airport | Manchester Airport (EGCC) |
Arrival
| Time | 2026-04-29 21:52 |
|---|---|
| Airport | Menorca Airport (LEMH) |
| Time | Latitude | Longitude | Altitude | Speed | Heading |
|---|---|---|---|---|---|
| 2026-04-29 21:48 | 39.69794 | 4.18489 | 2009 ft | 176 kts | 12° |
| 2026-04-29 21:48 | 39.71009 | 4.18739 | 2006 ft | 176 kts | 12° |
| 2026-04-29 21:48 | 39.72214 | 4.18985 | 2008 ft | 175 kts | 11° |
| 2026-04-29 21:48 | 39.73421 | 4.19232 | 2004 ft | 176 kts | 11° |
| 2026-04-29 21:49 | 39.74634 | 4.19481 | 2011 ft | 177 kts | 11° |
| 2026-04-29 21:49 | 39.75856 | 4.19731 | 1995 ft | 177 kts | 11° |
| 2026-04-29 21:49 | 39.77074 | 4.19980 | 1855 ft | 177 kts | 12° |
| 2026-04-29 21:49 | 39.78285 | 4.20228 | 1647 ft | 176 kts | 11° |
| 2026-04-29 21:50 | 39.79481 | 4.20473 | 1438 ft | 168 kts | 11° |
| 2026-04-29 21:50 | 39.80601 | 4.20703 | 1203 ft | 159 kts | 11° |
| 2026-04-29 21:50 | 39.81664 | 4.20921 | 1006 ft | 154 kts | 11° |
| 2026-04-29 21:50 | 39.82705 | 4.21134 | 808 ft | 149 kts | 11° |
| 2026-04-29 21:51 | 39.83732 | 4.21324 | 616 ft | 148 kts | 11° |
| 2026-04-29 21:51 | 39.84738 | 4.21547 | 408 ft | 146 kts | 11° |
| 2026-04-29 21:51 | 39.86536 | 4.21909 | 302 ft | 80 kts | 9° |
| 2026-04-29 21:52 | 39.86847 | 4.21977 | 306 ft | 32 kts | 8° |
| 2026-04-29 21:52 | 39.87061 | 4.22022 | 303 ft | 30 kts | 10° |
| 2026-04-29 21:52 | 39.87261 | 4.22067 | 308 ft | 28 kts | 9° |
| 2026-04-29 21:52 | 39.87375 | 4.22136 | 311 ft | 16 kts | 58° |
| 2026-04-29 21:53 | 39.87390 | 4.22273 | 313 ft | 15 kts | 104° |
| 2026-04-29 21:53 | 39.87301 | 4.22322 | 311 ft | 17 kts | 185° |
| 2026-04-29 21:53 | 39.87171 | 4.22295 | 308 ft | 21 kts | 189° |
| 2026-04-29 21:53 | 39.87019 | 4.22262 | 303 ft | 20 kts | 191° |
| 2026-04-29 21:54 | 39.86925 | 4.22300 | 300 ft | 15 kts | 108° |
| 2026-04-29 21:54 | 39.86860 | 4.22399 | 295 ft | 17 kts | 178° |
| 2026-04-29 21:54 | 39.86729 | 4.22373 | 291 ft | 20 kts | 190° |
| 2026-04-29 21:54 | 39.86583 | 4.22343 | 289 ft | 22 kts | 188° |
| 2026-04-29 21:55 | 39.86483 | 4.22331 | 290 ft | 7 kts | 147° |
| 2026-04-29 21:55 | 39.86471 | 4.22384 | 287 ft | 8 kts | 101° |
| 2026-04-29 21:55 | 39.86468 | 4.22403 | 286 ft | 0 kts | 100° |